Time;durP1;ratioP1;P1;durP2;ratioP2;P2;SDS_P1;SDS_P2;PMS_P1;PMS_P2;Temp;Humidity;BMP_temperature;BMP_pressure;BME280_temperature;BME280_humidity;BME280_pressure;Samples;Min_cycle;Max_cycle;Signal;HPM_P1;HPM_P2
2023/10/03 00:04:19;;;;;;;24.30;12.23;;;20.70;99.50;;;;;;10501931;28;20437;-65
2023/10/03 00:09:20;;;;;;;23.00;12.40;;;20.60;99.50;;;;;;10498837;28;20407;-65
2023/10/03 00:14:20;;;;;;;25.80;12.13;;;20.70;99.50;;;;;;10491546;28;20433;-65
2023/10/03 00:19:21;;;;;;;21.83;12.20;;;20.60;99.50;;;;;;10494381;28;20819;-66
2023/10/03 00:24:22;;;;;;;26.52;12.73;;;20.60;99.50;;;;;;10493906;28;20909;-65
2023/10/03 00:29:23;;;;;;;24.15;12.20;;;20.60;99.50;;;;;;10497565;28;20397;-65
2023/10/03 00:34:23;;;;;;;23.75;12.23;;;20.60;99.40;;;;;;10505570;28;20405;-65
2023/10/03 00:39:24;;;;;;;24.15;12.18;;;20.60;99.40;;;;;;10502011;28;20486;-65
2023/10/03 00:44:26;;;;;;;22.70;11.60;;;20.60;99.50;;;;;;10493563;28;20493;-66
2023/10/03 00:49:28;;;;;;;23.95;12.30;;;20.60;99.40;;;;;;10493382;28;20393;-66
2023/10/03 00:54:30;;;;;;;24.58;11.93;;;20.60;99.40;;;;;;10494773;28;20451;-65
2023/10/03 00:59:33;;;;;;;23.27;12.05;;;20.50;99.40;;;;;;10493321;28;20397;-65
2023/10/03 01:04:34;;;;;;;23.77;12.48;;;20.50;99.30;;;;;;10504782;28;20401;-65
2023/10/03 01:09:35;;;;;;;23.13;12.02;;;20.50;99.30;;;;;;10487728;28;20466;-65
2023/10/03 01:14:39;;;;;;;23.00;11.57;;;20.50;99.30;;;;;;10504666;28;20414;-65
2023/10/03 01:19:41;;;;;;;22.08;11.55;;;20.50;99.30;;;;;;10486328;28;20401;-65
2023/10/03 01:24:41;;;;;;;22.73;11.73;;;20.50;99.30;;;;;;10496701;28;20394;-65
2023/10/03 01:29:42;;;;;;;22.87;11.30;;;20.50;99.30;;;;;;10499990;28;20402;-65
2023/10/03 01:34:42;;;;;;;23.90;11.83;;;20.50;99.30;;;;;;10495249;28;20421;-65
2023/10/03 01:39:43;;;;;;;23.50;11.83;;;20.40;99.20;;;;;;10495990;28;20597;-65
2023/10/03 01:44:44;;;;;;;22.57;11.83;;;20.40;99.20;;;;;;10499276;28;20404;-65
2023/10/03 01:49:48;;;;;;;24.63;11.80;;;20.40;99.20;;;;;;10498451;28;20787;-65
2023/10/03 01:54:49;;;;;;;24.10;11.90;;;20.40;99.10;;;;;;10501798;28;20530;-65
2023/10/03 01:59:50;;;;;;;24.37;11.73;;;20.40;99.10;;;;;;10493634;28;20485;-66
2023/10/03 02:04:50;;;;;;;23.53;11.83;;;20.40;99.10;;;;;;10498091;28;20437;-65
2023/10/03 02:09:51;;;;;;;24.20;11.53;;;20.30;99.10;;;;;;10501021;28;20407;-66
2023/10/03 02:14:54;;;;;;;23.20;11.70;;;20.40;99.00;;;;;;10506627;28;20422;-64
2023/10/03 02:19:54;;;;;;;23.05;11.90;;;20.40;99.00;;;;;;10493295;28;20395;-66
2023/10/03 02:24:55;;;;;;;22.65;11.68;;;20.40;99.00;;;;;;10509812;28;20403;-64
2023/10/03 02:29:58;;;;;;;23.58;11.57;;;20.30;99.00;;;;;;10508651;28;20396;-65
2023/10/03 02:35:00;;;;;;;26.15;12.88;;;20.40;99.00;;;;;;10508022;28;20462;-66
2023/10/03 02:40:00;;;;;;;25.48;12.00;;;20.30;98.90;;;;;;10507218;28;20765;-66
2023/10/03 02:45:01;;;;;;;24.57;11.37;;;20.30;98.90;;;;;;10516415;28;20433;-66
2023/10/03 02:50:02;;;;;;;23.73;11.70;;;20.30;98.90;;;;;;10503770;28;20390;-64
2023/10/03 02:55:03;;;;;;;23.63;11.80;;;20.30;98.80;;;;;;10507117;28;20848;-65
2023/10/03 03:00:14;;;;;;;25.30;12.07;;;20.30;98.80;;;;;;10507356;28;21080;-65
2023/10/03 03:05:16;;;;;;;26.63;12.40;;;20.30;98.80;;;;;;10513524;28;20390;-66
2023/10/03 03:10:21;;;;;;;25.17;11.90;;;20.30;98.80;;;;;;10501116;28;20446;-64
2023/10/03 03:15:27;;;;;;;24.23;11.85;;;20.30;98.80;;;;;;10507029;28;20922;-64
2023/10/03 03:20:36;;;;;;;24.17;12.07;;;20.20;98.70;;;;;;10496319;28;20397;-65
2023/10/03 03:25:37;;;;;;;24.60;12.00;;;20.30;98.70;;;;;;10497739;28;20493;-65
2023/10/03 03:30:45;;;;;;;26.58;12.40;;;20.20;98.70;;;;;;10515077;28;20398;-65
2023/10/03 03:35:47;;;;;;;23.80;11.88;;;20.20;98.70;;;;;;10501385;28;20420;-65
2023/10/03 03:40:56;;;;;;;26.52;12.30;;;20.20;98.70;;;;;;10491765;28;20393;-65
2023/10/03 03:45:56;;;;;;;23.17;11.50;;;20.20;98.70;;;;;;10497242;28;20525;-65
2023/10/03 03:50:57;;;;;;;26.13;11.97;;;20.20;98.70;;;;;;10496882;28;20521;-65
2023/10/03 03:56:07;;;;;;;25.73;12.68;;;20.20;98.60;;;;;;10501522;28;20779;-65
2023/10/03 04:01:14;;;;;;;25.20;11.23;;;20.20;98.60;;;;;;10491248;28;20398;-65
2023/10/03 04:06:15;;;;;;;23.63;11.90;;;20.10;98.60;;;;;;10500063;28;20411;-65
2023/10/03 04:11:16;;;;;;;26.33;11.98;;;20.20;98.60;;;;;;10490794;28;20780;-65
2023/10/03 04:16:17;;;;;;;26.98;12.50;;;20.20;98.60;;;;;;10491900;28;20403;-65
2023/10/03 04:21:20;;;;;;;25.50;12.67;;;20.20;98.60;;;;;;10494197;28;20556;-65
2023/10/03 04:26:21;;;;;;;24.13;11.60;;;20.20;98.60;;;;;;10499629;28;20424;-65
2023/10/03 04:31:22;;;;;;;25.87;12.30;;;20.20;98.60;;;;;;10503451;28;20489;-65
2023/10/03 04:36:25;;;;;;;25.02;12.48;;;20.20;98.60;;;;;;10495704;28;20406;-65
2023/10/03 04:41:28;;;;;;;23.67;11.40;;;20.20;98.60;;;;;;10489872;28;20680;-66
2023/10/03 04:46:28;;;;;;;22.93;11.70;;;20.20;98.60;;;;;;10496767;28;20402;-65
2023/10/03 04:51:29;;;;;;;25.17;11.83;;;20.20;98.60;;;;;;10501706;28;20683;-65
2023/10/03 04:56:30;;;;;;;28.23;12.10;;;20.20;98.70;;;;;;10500601;28;21034;-66
2023/10/03 05:01:30;;;;;;;23.63;11.50;;;20.20;98.70;;;;;;10503056;28;20405;-65
2023/10/03 05:06:31;;;;;;;24.30;11.17;;;20.20;98.60;;;;;;10496386;28;20398;-65
2023/10/03 05:11:31;;;;;;;22.40;10.60;;;20.20;98.70;;;;;;10491572;28;20826;-65
2023/10/03 05:16:34;;;;;;;21.67;10.23;;;20.20;98.70;;;;;;10491773;28;20417;-64
2023/10/03 05:21:35;;;;;;;21.90;10.57;;;20.20;98.80;;;;;;10499050;28;20951;-65
2023/10/03 05:26:36;;;;;;;22.90;10.30;;;20.20;98.80;;;;;;10494258;28;20473;-65
2023/10/03 05:31:40;;;;;;;20.40;9.97;;;20.20;98.80;;;;;;10494024;28;20799;-65
2023/10/03 05:36:41;;;;;;;20.75;10.73;;;20.20;98.80;;;;;;10495290;28;20399;-65
2023/10/03 05:41:42;;;;;;;20.67;10.00;;;20.20;98.80;;;;;;10486893;28;20416;-66
2023/10/03 05:46:43;;;;;;;20.70;9.73;;;20.20;99.00;;;;;;10497302;28;20390;-66
2023/10/03 05:51:44;;;;;;;19.33;9.70;;;20.30;98.80;;;;;;10504826;28;20427;-65
2023/10/03 05:56:44;;;;;;;21.33;10.13;;;20.20;98.80;;;;;;10502914;28;20494;-65
2023/10/03 06:01:45;;;;;;;19.67;9.70;;;20.20;98.80;;;;;;10489644;28;20528;-66
2023/10/03 06:06:46;;;;;;;19.67;9.07;;;20.30;98.80;;;;;;10492576;28;20399;-65
2023/10/03 06:11:46;;;;;;;20.37;9.60;;;20.30;98.80;;;;;;10493236;28;20409;-65
2023/10/03 06:16:47;;;;;;;16.77;8.07;;;20.30;98.80;;;;;;10489743;28;20457;-65
2023/10/03 06:21:47;;;;;;;20.50;8.07;;;20.20;98.90;;;;;;10490101;28;20409;-64
2023/10/03 06:26:48;;;;;;;17.37;8.37;;;20.20;98.90;;;;;;10501638;28;20542;-64
2023/10/03 06:31:51;;;;;;;16.07;7.90;;;20.20;98.80;;;;;;10502138;28;20500;-65
2023/10/03 06:36:52;;;;;;;15.23;7.73;;;20.20;98.80;;;;;;10499249;28;20482;-66
2023/10/03 06:41:55;;;;;;;15.27;7.45;;;20.20;98.80;;;;;;10498996;28;20481;-65
2023/10/03 06:46:56;;;;;;;15.25;7.50;;;20.20;98.80;;;;;;10503337;28;20722;-64
2023/10/03 06:52:00;;;;;;;14.37;6.83;;;20.20;98.80;;;;;;10492481;28;20390;-65
2023/10/03 06:57:01;;;;;;;14.43;7.40;;;20.20;98.80;;;;;;10499226;28;20404;-66
2023/10/03 07:02:03;;;;;;;14.43;7.10;;;20.20;98.70;;;;;;10485169;28;20402;-66
2023/10/03 07:07:05;;;;;;;14.90;7.15;;;20.20;98.70;;;;;;10487466;28;20459;-65
2023/10/03 07:12:08;;;;;;;12.68;6.50;;;20.20;98.70;;;;;;10485318;28;20767;-65
2023/10/03 07:17:09;;;;;;;12.77;6.43;;;20.20;98.70;;;;;;10480189;28;20485;-65
2023/10/03 07:22:10;;;;;;;12.93;6.68;;;20.30;98.70;;;;;;10495678;28;20452;-66
2023/10/03 07:27:14;;;;;;;15.43;7.30;;;20.30;98.70;;;;;;10492146;28;20728;-66
2023/10/03 07:32:15;;;;;;;13.82;6.93;;;20.20;98.70;;;;;;10490460;28;20748;-66
2023/10/03 07:37:15;;;;;;;14.70;6.80;;;20.20;98.70;;;;;;10506083;28;20411;-65
2023/10/03 07:42:23;;;;;;;11.80;6.10;;;20.20;98.70;;;;;;10491311;28;20454;-66
2023/10/03 07:47:24;;;;;;;10.80;5.80;;;20.20;98.70;;;;;;10491295;28;20408;-68
2023/10/03 07:52:27;;;;;;;13.03;6.17;;;20.10;98.60;;;;;;10484159;28;20402;-65
2023/10/03 07:57:28;;;;;;;12.70;5.55;;;20.20;98.70;;;;;;10495796;28;20397;-65
2023/10/03 08:02:32;;;;;;;12.93;6.75;;;20.20;98.70;;;;;;10500841;28;20958;-64
2023/10/03 08:07:32;;;;;;;14.38;6.70;;;20.20;98.80;;;;;;10490055;28;20986;-65
2023/10/03 08:12:38;;;;;;;11.13;5.73;;;20.20;98.80;;;;;;10490060;28;20486;-65
2023/10/03 08:17:38;;;;;;;9.80;6.03;;;20.20;98.80;;;;;;10495952;28;20404;-66
2023/10/03 08:22:41;;;;;;;10.33;5.67;;;20.20;98.80;;;;;;10491399;28;20754;-65
2023/10/03 08:27:46;;;;;;;7.80;5.13;;;20.20;98.80;;;;;;10493615;28;20481;-65
2023/10/03 08:32:49;;;;;;;9.93;5.18;;;20.20;98.80;;;;;;10493632;28;20409;-65
2023/10/03 08:37:49;;;;;;;9.13;5.00;;;20.10;98.80;;;;;;10491447;28;20417;-65
2023/10/03 08:42:55;;;;;;;7.97;4.63;;;20.20;98.90;;;;;;10498165;28;20402;-65
2023/10/03 08:47:57;;;;;;;9.17;4.93;;;20.20;98.90;;;;;;10483596;28;20405;-65
2023/10/03 08:53:12;;;;;;;8.25;4.32;;;21.30;99.20;;;;;;10495667;28;20739;-65
2023/10/03 08:58:18;;;;;;;9.00;4.65;;;20.20;98.80;;;;;;10501436;28;20491;-66
2023/10/03 09:03:19;;;;;;;8.87;4.30;;;20.10;98.80;;;;;;10501470;28;20396;-65
2023/10/03 09:08:20;;;;;;;10.32;4.70;;;20.20;98.80;;;;;;10494252;28;20887;-65
2023/10/03 09:13:27;;;;;;;8.87;4.10;;;20.20;98.80;;;;;;10498411;28;20437;-65
2023/10/03 09:18:30;;;;;;;7.15;4.30;;;20.20;98.70;;;;;;10488040;28;20840;-65
2023/10/03 09:23:39;;;;;;;6.72;3.88;;;20.20;98.80;;;;;;10495254;28;20401;-63
2023/10/03 09:28:43;;;;;;;6.78;3.65;;;20.10;98.70;;;;;;10499111;28;20586;-65
2023/10/03 09:33:45;;;;;;;7.53;3.60;;;20.20;98.70;;;;;;10507477;28;20405;-65
2023/10/03 09:38:48;;;;;;;5.50;3.87;;;20.10;98.60;;;;;;10501008;28;20940;-66
2023/10/03 09:43:56;;;;;;;5.32;3.08;;;20.10;98.50;;;;;;10505754;28;20399;-65
2023/10/03 09:49:07;;;;;;;5.45;3.33;;;20.20;98.50;;;;;;10508211;28;20428;-65
2023/10/03 09:54:10;;;;;;;5.65;3.08;;;20.10;98.50;;;;;;10487974;28;20423;-65
2023/10/03 09:59:17;;;;;;;5.05;3.10;;;20.10;98.40;;;;;;10487036;28;21037;-65
2023/10/03 10:04:19;;;;;;;5.20;2.90;;;20.10;98.40;;;;;;10488941;28;20427;-65
2023/10/03 10:09:28;;;;;;;4.93;2.70;;;20.10;98.40;;;;;;10500763;28;20411;-65
2023/10/03 10:14:29;;;;;;;5.10;2.70;;;20.10;98.30;;;;;;10498409;28;20459;-65
2023/10/03 10:20:09;;;;;;;5.47;2.70;;;20.10;98.40;;;;;;10491628;28;20535;-64
2023/10/03 10:25:29;;;;;;;5.10;2.50;;;20.10;98.30;;;;;;10482099;28;20406;-65
2023/10/03 10:30:31;;;;;;;4.72;2.63;;;20.10;98.30;;;;;;10512487;28;20398;-65
2023/10/03 10:35:59;;;;;;;4.03;2.30;;;20.00;98.20;;;;;;10505748;28;20843;-66
2023/10/03 10:41:21;;;;;;;4.87;2.30;;;20.00;98.20;;;;;;10508999;28;20885;-65
2023/10/03 10:46:46;;;;;;;4.10;2.45;;;20.00;98.10;;;;;;10499773;28;20887;-65
2023/10/03 10:51:55;;;;;;;4.10;2.30;;;20.00;98.10;;;;;;10510893;28;20440;-65
2023/10/03 10:57:14;;;;;;;3.13;2.23;;;20.10;98.10;;;;;;10495178;28;20448;-65
2023/10/03 11:02:21;;;;;;;3.75;2.13;;;20.10;98.10;;;;;;10501803;28;20395;-64
2023/10/03 11:07:23;;;;;;;4.03;2.47;;;20.10;98.00;;;;;;10500387;28;20446;-65
2023/10/03 11:12:28;;;;;;;4.03;2.13;;;20.10;98.00;;;;;;10506966;28;20433;-65
2023/10/03 11:17:28;;;;;;;3.50;1.92;;;20.10;97.90;;;;;;10507858;28;20435;-65
2023/10/03 11:22:30;;;;;;;3.20;2.10;;;20.00;97.90;;;;;;10503131;28;20469;-65
2023/10/03 11:27:30;;;;;;;3.45;1.80;;;20.00;97.90;;;;;;10501039;28;20456;-64
2023/10/03 11:32:35;;;;;;;3.65;1.80;;;20.00;97.90;;;;;;10504829;28;20459;-66
2023/10/03 11:37:41;;;;;;;2.73;1.80;;;20.00;97.90;;;;;;10502664;28;20478;-65
2023/10/03 11:43:02;;;;;;;2.63;2.00;;;20.00;97.90;;;;;;10501676;28;20812;-65
2023/10/03 11:48:10;;;;;;;3.00;1.70;;;19.90;97.90;;;;;;10495660;28;20473;-64
2023/10/03 11:53:12;;;;;;;3.50;1.80;;;20.00;97.90;;;;;;10504288;28;20405;-65
2023/10/03 11:58:13;;;;;;;4.95;2.00;;;20.00;97.90;;;;;;10510319;28;20400;-65
2023/10/03 12:03:14;;;;;;;4.60;1.90;;;20.00;97.80;;;;;;10506486;28;20424;-65
2023/10/03 12:08:15;;;;;;;4.35;1.98;;;20.00;97.80;;;;;;10487106;28;20842;-65
2023/10/03 12:13:16;;;;;;;3.23;1.70;;;20.00;97.80;;;;;;10506963;28;20481;-65
2023/10/03 12:18:20;;;;;;;3.50;1.80;;;19.90;97.80;;;;;;10500166;28;20420;-65
2023/10/03 12:23:21;;;;;;;3.00;1.67;;;19.90;97.80;;;;;;10498291;28;20775;-66
2023/10/03 12:28:21;;;;;;;4.50;1.70;;;19.90;97.80;;;;;;10501266;28;20426;-65
2023/10/03 12:33:22;;;;;;;4.85;2.00;;;19.90;97.80;;;;;;10506311;28;20456;-65
2023/10/03 12:38:23;;;;;;;4.30;1.83;;;19.90;97.70;;;;;;10503049;28;20429;-65
2023/10/03 12:43:25;;;;;;;5.22;2.10;;;20.00;97.70;;;;;;10507416;28;20393;-65
2023/10/03 12:48:26;;;;;;;4.90;1.92;;;19.90;97.70;;;;;;10498807;28;20398;-65
2023/10/03 12:53:33;;;;;;;5.18;2.25;;;20.00;97.70;;;;;;10502971;28;20404;-65
2023/10/03 12:58:39;;;;;;;4.70;1.88;;;20.00;97.60;;;;;;10503775;28;20434;-65
2023/10/03 13:03:39;;;;;;;4.40;2.00;;;19.90;97.60;;;;;;10495062;28;20395;-66
2023/10/03 13:08:42;;;;;;;3.57;1.83;;;20.00;97.50;;;;;;10502394;28;20397;-65
2023/10/03 13:13:44;;;;;;;4.80;1.88;;;20.00;97.50;;;;;;10502811;28;20398;-65
2023/10/03 13:18:46;;;;;;;4.35;1.73;;;20.00;97.50;;;;;;10504960;28;20414;-65
2023/10/03 13:23:47;;;;;;;5.47;1.98;;;20.00;97.50;;;;;;10498756;28;20385;-65
2023/10/03 13:28:48;;;;;;;4.57;1.63;;;20.00;97.50;;;;;;10495027;28;20393;-65
2023/10/03 13:33:49;;;;;;;5.45;1.90;;;20.00;97.40;;;;;;10502095;28;20414;-65
2023/10/03 13:38:51;;;;;;;4.33;1.73;;;20.00;97.40;;;;;;10501900;28;20872;-65
2023/10/03 13:43:51;;;;;;;7.93;2.30;;;20.00;97.30;;;;;;10502072;28;20423;-65
2023/10/03 13:48:53;;;;;;;3.97;1.70;;;20.00;97.30;;;;;;10500572;28;20466;-65
2023/10/03 13:53:57;;;;;;;3.42;1.60;;;20.00;97.20;;;;;;10506742;28;20433;-65
2023/10/03 13:58:58;;;;;;;4.57;1.77;;;20.00;97.10;;;;;;10504918;28;20407;-64
2023/10/03 14:03:58;;;;;;;5.37;2.37;;;20.00;96.90;;;;;;10512711;28;20398;-65
2023/10/03 14:08:59;;;;;;;5.13;2.30;;;20.00;96.90;;;;;;10492949;28;20404;-66
2023/10/03 14:14:00;;;;;;;5.43;1.97;;;20.00;96.90;;;;;;10506572;28;20942;-66
2023/10/03 14:19:00;;;;;;;5.23;2.00;;;19.90;96.90;;;;;;10513417;28;20398;-65
2023/10/03 14:24:01;;;;;;;3.57;2.10;;;19.90;97.00;;;;;;10509843;28;20393;-65
2023/10/03 14:29:04;;;;;;;4.32;1.80;;;19.80;97.00;;;;;;10503097;28;20392;-64
2023/10/03 14:34:05;;;;;;;6.47;1.83;;;19.80;97.10;;;;;;10501442;28;20422;-65
2023/10/03 14:39:07;;;;;;;3.53;1.60;;;19.80;97.00;;;;;;10495685;28;20440;-65
2023/10/03 14:44:10;;;;;;;3.60;1.65;;;20.00;96.90;;;;;;10488872;28;20481;-67
2023/10/03 14:49:14;;;;;;;3.97;1.50;;;20.00;96.50;;;;;;10492592;28;20408;-64
2023/10/03 14:54:18;;;;;;;4.30;1.80;;;20.10;96.20;;;;;;10499217;28;20484;-65
2023/10/03 14:59:19;;;;;;;3.70;1.50;;;20.10;96.10;;;;;;10493532;28;20440;-66
2023/10/03 15:04:21;;;;;;;4.10;1.60;;;20.10;95.90;;;;;;10493506;28;20504;-65
2023/10/03 15:09:22;;;;;;;3.27;1.57;;;20.10;96.00;;;;;;10494160;28;20400;-66
2023/10/03 15:14:24;;;;;;;3.38;1.65;;;20.10;96.00;;;;;;10491596;28;20434;-66
2023/10/03 15:19:25;;;;;;;4.17;1.63;;;20.00;96.00;;;;;;10491432;28;20416;-65
2023/10/03 15:24:26;;;;;;;3.97;1.50;;;20.00;96.00;;;;;;10485712;28;20387;-65
2023/10/03 15:29:27;;;;;;;4.43;1.50;;;19.90;96.10;;;;;;10494606;28;20395;-66
2023/10/03 15:34:30;;;;;;;3.83;1.53;;;19.90;96.20;;;;;;10492869;28;20787;-65
2023/10/03 15:39:31;;;;;;;3.80;1.50;;;19.90;96.20;;;;;;10481570;28;20466;-65
2023/10/03 15:44:31;;;;;;;4.20;1.63;;;19.90;96.20;;;;;;10493492;28;20399;-66
2023/10/03 15:49:32;;;;;;;4.10;1.83;;;19.90;96.20;;;;;;10487769;28;20399;-64
2023/10/03 15:54:33;;;;;;;3.40;1.58;;;19.90;96.20;;;;;;10498269;28;20881;-64
2023/10/03 15:59:33;;;;;;;3.70;1.80;;;19.80;96.30;;;;;;10496117;28;20407;-66
2023/10/03 16:04:35;;;;;;;3.23;1.43;;;19.80;96.30;;;;;;10492727;28;20395;-65
2023/10/03 16:09:40;;;;;;;3.73;1.80;;;19.80;96.30;;;;;;10498023;28;20449;-65
2023/10/03 16:14:41;;;;;;;3.20;1.70;;;19.80;96.30;;;;;;10487108;28;20391;-65
2023/10/03 16:19:44;;;;;;;6.37;1.90;;;19.80;96.30;;;;;;10486669;28;20395;-65
2023/10/03 16:24:45;;;;;;;4.07;1.77;;;19.70;96.30;;;;;;10483874;28;20495;-65
2023/10/03 16:29:45;;;;;;;4.53;2.03;;;19.70;96.30;;;;;;10492369;28;20468;-65
2023/10/03 16:34:46;;;;;;;5.30;1.63;;;19.70;96.30;;;;;;10490456;28;20972;-66
2023/10/03 16:39:46;;;;;;;4.73;1.80;;;19.60;96.30;;;;;;10489318;28;20413;-66
2023/10/03 16:44:47;;;;;;;4.83;2.00;;;19.60;96.30;;;;;;10492368;28;20776;-65
2023/10/03 16:49:48;;;;;;;5.07;1.80;;;19.60;96.30;;;;;;10494051;28;20487;-65
2023/10/03 16:54:48;;;;;;;4.25;2.08;;;19.60;96.20;;;;;;10501207;28;20674;-65
2023/10/03 16:59:50;;;;;;;4.68;1.92;;;19.60;96.20;;;;;;10499915;28;20483;-66
2023/10/03 17:04:52;;;;;;;4.70;1.98;;;19.50;96.20;;;;;;10496575;28;20471;-65
2023/10/03 17:09:52;;;;;;;6.57;1.98;;;19.50;96.20;;;;;;10490937;28;20411;-65
2023/10/03 17:14:53;;;;;;;4.90;2.20;;;19.50;96.10;;;;;;10492989;28;20396;-65
2023/10/03 17:19:54;;;;;;;4.53;2.03;;;19.50;96.10;;;;;;10484440;28;20406;-63
2023/10/03 17:24:54;;;;;;;5.27;2.07;;;19.50;96.10;;;;;;10490633;28;20445;-65
2023/10/03 17:29:55;;;;;;;4.33;1.90;;;19.40;96.00;;;;;;10492251;28;20441;-65
2023/10/03 17:34:57;;;;;;;5.27;1.90;;;19.40;96.00;;;;;;10486334;28;20418;-64
2023/10/03 17:39:58;;;;;;;5.57;2.53;;;19.40;96.00;;;;;;10492232;28;20394;-65
2023/10/03 17:44:58;;;;;;;5.47;1.80;;;19.40;96.00;;;;;;10483484;28;20452;-65
2023/10/03 17:50:00;;;;;;;5.30;2.00;;;19.40;95.90;;;;;;10485792;28;20396;-65
2023/10/03 17:55:00;;;;;;;6.10;2.08;;;19.40;96.00;;;;;;10494533;28;20410;-64
2023/10/03 18:00:13;;;;;;;6.00;2.03;;;19.30;96.10;;;;;;10485618;28;20397;-65
2023/10/03 18:05:18;;;;;;;5.53;2.10;;;19.30;96.30;;;;;;10489455;28;20413;-64
2023/10/03 18:10:22;;;;;;;3.70;1.83;;;19.30;96.10;;;;;;10482938;28;20776;-64
2023/10/03 18:15:23;;;;;;;5.03;1.90;;;19.20;96.10;;;;;;10484241;28;20541;-64
2023/10/03 18:20:23;;;;;;;6.37;2.00;;;19.20;96.00;;;;;;10480540;28;20944;-64
2023/10/03 18:25:24;;;;;;;4.83;1.60;;;19.20;96.00;;;;;;10490743;28;20390;-65
2023/10/03 18:30:25;;;;;;;3.85;1.88;;;19.20;96.00;;;;;;10488372;28;20426;-65
2023/10/03 18:35:27;;;;;;;4.25;1.50;;;19.10;95.90;;;;;;10494679;28;20923;-65
2023/10/03 18:40:33;;;;;;;3.88;1.90;;;19.10;95.90;;;;;;10484095;28;20401;-65
2023/10/03 18:45:34;;;;;;;3.65;1.80;;;19.10;95.90;;;;;;10485303;28;20405;-64
2023/10/03 18:50:35;;;;;;;3.50;1.67;;;19.10;95.90;;;;;;10494449;28;21080;-65
2023/10/03 18:55:35;;;;;;;3.25;1.63;;;19.00;95.80;;;;;;10503321;28;20835;-65
2023/10/03 19:00:36;;;;;;;4.43;1.60;;;19.10;95.80;;;;;;10491239;28;20430;-64
2023/10/03 19:05:37;;;;;;;3.20;1.55;;;19.00;95.70;;;;;;10497601;28;20416;-65
2023/10/03 19:10:38;;;;;;;3.35;1.50;;;18.90;95.70;;;;;;10494115;28;20930;-65
2023/10/03 19:15:38;;;;;;;5.80;1.57;;;18.90;95.70;;;;;;10476843;28;20414;-65
2023/10/03 19:20:39;;;;;;;3.13;1.90;;;18.90;95.70;;;;;;10493717;28;20452;-65
2023/10/03 19:25:40;;;;;;;2.33;1.40;;;18.90;95.70;;;;;;10495613;28;20467;-65
2023/10/03 19:30:41;;;;;;;3.70;1.40;;;18.90;95.60;;;;;;10495659;28;20402;-65
2023/10/03 19:35:41;;;;;;;3.00;1.30;;;18.80;95.60;;;;;;10496258;28;20408;-65
2023/10/03 19:40:42;;;;;;;3.33;1.48;;;18.80;95.60;;;;;;10498031;28;20388;-65
2023/10/03 19:45:43;;;;;;;2.90;1.45;;;18.80;95.60;;;;;;10499320;28;20415;-64
2023/10/03 19:50:44;;;;;;;1.98;1.25;;;18.80;95.60;;;;;;10498193;28;20773;-64
2023/10/03 19:55:44;;;;;;;3.70;1.27;;;18.80;95.60;;;;;;10493084;28;20675;-64
2023/10/03 20:00:46;;;;;;;3.40;1.50;;;18.70;95.50;;;;;;10501996;28;20406;-65
2023/10/03 20:05:46;;;;;;;3.63;1.40;;;18.70;95.50;;;;;;10490381;28;20879;-65
2023/10/03 20:10:54;;;;;;;3.63;1.40;;;18.70;95.60;;;;;;10492036;28;20423;-63
2023/10/03 20:15:54;;;;;;;2.85;1.40;;;18.70;95.60;;;;;;10499415;28;21993;-65
2023/10/03 20:20:55;;;;;;;3.30;1.60;;;18.70;95.60;;;;;;10490877;28;20392;-65
2023/10/03 20:25:57;;;;;;;2.97;1.40;;;18.60;95.60;;;;;;10493452;28;20405;-65
2023/10/03 20:30:57;;;;;;;2.80;1.23;;;18.60;95.60;;;;;;10498530;28;20886;-65
2023/10/03 20:35:58;;;;;;;3.78;1.42;;;18.60;95.60;;;;;;10495672;28;20416;-66
2023/10/03 20:41:05;;;;;;;3.60;1.42;;;18.60;95.60;;;;;;10494906;28;20387;-66
2023/10/03 20:46:13;;;;;;;2.65;1.48;;;18.60;95.60;;;;;;10490964;28;20397;-64
2023/10/03 20:51:22;;;;;;;3.03;1.13;;;18.50;95.60;;;;;;10500723;28;20730;-64
2023/10/03 20:56:23;;;;;;;4.07;1.45;;;18.50;95.70;;;;;;10494561;28;20801;-65
2023/10/03 21:01:24;;;;;;;3.20;1.37;;;18.50;95.70;;;;;;10495554;28;20455;-64
2023/10/03 21:06:25;;;;;;;2.30;1.27;;;18.50;95.70;;;;;;10488019;28;20477;-65
2023/10/03 21:11:26;;;;;;;3.07;1.43;;;18.40;95.70;;;;;;10494778;28;20881;-64
2023/10/03 21:16:27;;;;;;;3.70;1.42;;;18.40;95.70;;;;;;10502606;28;20606;-64
2023/10/03 21:21:27;;;;;;;2.72;1.40;;;18.40;95.70;;;;;;10493943;28;20447;-64
2023/10/03 21:26:28;;;;;;;3.15;1.40;;;18.40;95.70;;;;;;10496949;28;20444;-65
2023/10/03 21:31:29;;;;;;;3.90;1.40;;;18.40;95.70;;;;;;10509332;28;20411;-65
2023/10/03 21:36:29;;;;;;;3.60;1.40;;;18.40;95.70;;;;;;10501452;28;20959;-66
2023/10/03 21:41:30;;;;;;;4.20;1.30;;;18.40;95.70;;;;;;10500190;28;20841;-65
2023/10/03 21:46:30;;;;;;;3.57;1.57;;;18.30;95.70;;;;;;10495936;28;20415;-65
2023/10/03 21:51:31;;;;;;;3.30;1.40;;;18.30;95.60;;;;;;10505035;28;20457;-63
2023/10/03 21:56:38;;;;;;;3.22;1.23;;;18.30;95.70;;;;;;10494083;28;20410;-65
2023/10/03 22:01:41;;;;;;;2.93;1.60;;;18.30;95.60;;;;;;10486587;28;20393;-65
2023/10/03 22:06:41;;;;;;;3.25;1.48;;;18.30;95.60;;;;;;10492429;28;20807;-65
2023/10/03 22:11:42;;;;;;;3.57;1.37;;;18.30;95.60;;;;;;10491426;28;20405;-64
2023/10/03 22:16:43;;;;;;;2.63;1.40;;;18.20;95.60;;;;;;10504225;28;20783;-65
2023/10/03 22:21:44;;;;;;;3.60;1.35;;;18.20;95.80;;;;;;10499228;28;20401;-64
2023/10/03 22:26:45;;;;;;;3.88;1.50;;;18.20;95.60;;;;;;10503194;28;20392;-65
2023/10/03 22:31:45;;;;;;;3.95;1.50;;;18.20;95.50;;;;;;10499010;28;20403;-65
2023/10/03 22:36:46;;;;;;;3.17;1.70;;;18.20;95.50;;;;;;10505219;28;20433;-65
2023/10/03 22:41:46;;;;;;;2.87;1.53;;;18.20;95.50;;;;;;10499713;28;20401;-65
2023/10/03 22:46:47;;;;;;;3.30;1.57;;;18.20;95.50;;;;;;10499632;28;20423;-65
2023/10/03 22:51:48;;;;;;;4.28;1.60;;;18.20;95.60;;;;;;10495299;28;20394;-65
2023/10/03 22:56:48;;;;;;;3.88;1.70;;;18.20;95.60;;;;;;10486357;28;20690;-64
2023/10/03 23:01:50;;;;;;;3.37;1.50;;;18.20;95.60;;;;;;10496914;28;20403;-65
2023/10/03 23:06:51;;;;;;;3.47;1.70;;;18.20;95.60;;;;;;10501981;28;20537;-65
2023/10/03 23:11:52;;;;;;;3.10;1.70;;;18.20;95.60;;;;;;10501048;28;20433;-65
2023/10/03 23:16:53;;;;;;;3.13;1.60;;;18.20;95.70;;;;;;10502333;28;20678;-66
2023/10/03 23:21:53;;;;;;;3.37;1.43;;;18.10;95.60;;;;;;10493382;28;20395;-64
2023/10/03 23:26:54;;;;;;;4.80;1.63;;;18.10;95.70;;;;;;10503905;28;20915;-65
2023/10/03 23:31:55;;;;;;;4.30;1.55;;;18.10;96.00;;;;;;10504458;28;20411;-64
2023/10/03 23:36:56;;;;;;;3.70;1.60;;;18.10;95.70;;;;;;10494123;28;20417;-64
2023/10/03 23:41:57;;;;;;;3.80;1.27;;;18.10;95.70;;;;;;10505380;28;20395;-65
2023/10/03 23:46:57;;;;;;;3.70;1.63;;;18.10;95.70;;;;;;10502932;28;20451;-65
2023/10/03 23:51:58;;;;;;;2.92;1.50;;;18.10;95.80;;;;;;10502345;28;20786;-64
2023/10/03 23:56:58;;;;;;;4.27;1.80;;;18.10;95.80;;;;;;10492766;28;20744;-65
